Time;durP1;ratioP1;P1;durP2;ratioP2;P2;SDS_P1;SDS_P2;PMS_P1;PMS_P2;Temp;Humidity;BMP_temperature;BMP_pressure;BME280_temperature;BME280_humidity;BME280_pressure;Samples;Min_cycle;Max_cycle;Signal;HPM_P1;HPM_P2
2022/09/20 00:01:21;;;;;;;11.57;4.50;;;;;;;11.19;91.72;102176.09;4991476;28;20046;-75
2022/09/20 00:03:49;;;;;;;7.80;4.43;;;;;;;11.19;91.36;102183.34;4992786;28;20097;-75
2022/09/20 00:06:17;;;;;;;10.93;4.60;;;;;;;11.19;90.89;102173.38;5006797;28;20521;-75
2022/09/20 00:08:43;;;;;;;10.70;4.60;;;;;;;11.18;91.44;102167.97;4991121;28;20509;-75
2022/09/20 00:11:14;;;;;;;12.45;5.15;;;;;;;11.17;91.35;102169.84;5027101;28;20040;-76
2022/09/20 00:13:40;;;;;;;9.57;4.45;;;;;;;11.14;91.79;102164.53;5010944;28;20044;-75
2022/09/20 00:16:08;;;;;;;9.68;5.25;;;;;;;11.13;91.94;102168.22;4993503;28;20022;-75
2022/09/20 00:18:34;;;;;;;9.43;5.30;;;;;;;11.11;91.40;102153.84;4992085;28;20038;-75
2022/09/20 00:20:59;;;;;;;11.38;4.85;;;;;;;11.09;92.36;102153.00;4992516;28;20236;-75
2022/09/20 00:23:25;;;;;;;13.25;5.22;;;;;;;11.10;91.46;102159.38;5011302;28;20056;-76
2022/09/20 00:25:56;;;;;;;7.63;4.70;;;;;;;11.08;92.57;102159.44;5012486;28;20037;-75
2022/09/20 00:28:21;;;;;;;8.85;5.10;;;;;;;11.07;92.41;102154.94;5011127;28;20129;-75
2022/09/20 00:30:48;;;;;;;13.40;5.43;;;;;;;10.99;92.75;102155.34;5010311;28;20037;-75
2022/09/20 00:33:13;;;;;;;10.77;5.00;;;;;;;11.00;92.55;102164.41;4991722;28;20500;-75
2022/09/20 00:35:42;;;;;;;11.30;4.50;;;;;;;10.96;92.70;102163.69;4992060;28;20038;-75
2022/09/20 00:38:08;;;;;;;7.60;4.22;;;;;;;10.98;92.49;102164.50;4992080;28;20482;-75
2022/09/20 00:40:34;;;;;;;9.32;4.30;;;;;;;10.97;92.47;102168.19;5007150;28;20038;-75
2022/09/20 00:42:59;;;;;;;12.48;4.78;;;;;;;10.97;92.45;102173.63;5006925;28;20033;-75
2022/09/20 00:45:27;;;;;;;10.82;5.15;;;;;;;10.97;92.43;102175.47;5006943;28;20040;-75
2022/09/20 00:48:14;;;;;;;9.00;4.13;;;;;;;10.96;92.39;102169.16;4991628;28;20033;-75
2022/09/20 00:50:43;;;;;;;6.97;4.20;;;;;;;10.94;91.65;102178.34;4991780;28;20070;-75
2022/09/20 00:53:11;;;;;;;8.60;5.00;;;;;;;10.92;91.21;102173.00;5006922;28;20128;-75
2022/09/20 00:55:45;;;;;;;9.77;4.13;;;;;;;10.88;91.46;102171.38;5006848;28;20038;-76
2022/09/20 00:58:11;;;;;;;11.10;4.28;;;;;;;10.85;91.28;102173.38;5009699;28;20074;-75
2022/09/20 01:00:38;;;;;;;9.15;4.05;;;;;;;10.81;91.02;102166.34;5005717;28;20038;-76
2022/09/20 01:03:08;;;;;;;8.73;4.45;;;;;;;10.76;91.63;102173.84;5006246;28;20037;-75
2022/09/20 01:05:35;;;;;;;8.65;4.38;;;;;;;10.71;91.86;102168.66;4996618;28;20058;-75
2022/09/20 01:08:01;;;;;;;11.82;3.83;;;;;;;10.70;91.55;102169.63;4991570;28;20038;-76
2022/09/20 01:10:26;;;;;;;8.77;4.30;;;;;;;10.70;91.72;102169.63;4973741;28;20066;-75
2022/09/20 01:12:53;;;;;;;7.07;3.70;;;;;;;10.69;91.78;102176.91;4991189;28;20125;-75
2022/09/20 01:15:20;;;;;;;8.52;4.45;;;;;;;10.70;92.48;102165.06;4991783;28;20097;-76
2022/09/20 01:17:51;;;;;;;11.25;4.03;;;;;;;10.72;92.00;102164.97;4990843;28;20118;-75
2022/09/20 01:20:22;;;;;;;12.10;4.20;;;;;;;10.73;92.01;102164.91;5005776;28;20114;-75
2022/09/20 01:23:12;;;;;;;7.32;3.92;;;;;;;10.76;92.12;102163.84;4991660;28;20042;-75
2022/09/20 01:25:52;;;;;;;11.05;4.65;;;;;;;10.78;91.68;102163.78;4991380;28;20050;-75
2022/09/20 01:28:18;;;;;;;8.18;3.97;;;;;;;10.77;91.48;102157.47;5008168;28;20477;-76
2022/09/20 01:30:49;;;;;;;9.48;3.97;;;;;;;10.81;91.76;102158.16;4991047;28;20137;-76
2022/09/20 01:33:30;;;;;;;11.35;3.63;;;;;;;10.83;91.87;102169.88;4990800;28;20154;-75
2022/09/20 01:35:59;;;;;;;9.23;4.35;;;;;;;10.82;91.90;102163.56;5006134;28;20038;-75
2022/09/20 01:38:47;;;;;;;9.82;4.45;;;;;;;10.85;91.79;102167.94;4991063;28;20046;-75
2022/09/20 01:41:22;;;;;;;13.10;5.13;;;;;;;10.88;91.81;102168.66;4991077;28;20034;-75
2022/09/20 01:44:39;;;;;;;11.60;4.32;;;;;;;10.88;91.51;102165.06;4990242;28;20038;-75
2022/09/20 01:47:44;;;;;;;6.78;4.00;;;;;;;10.86;91.32;102159.69;4987622;28;20046;-75
2022/09/20 01:50:34;;;;;;;12.98;4.05;;;;;;;10.91;91.48;102164.88;4990761;28;20485;-76
2022/09/20 01:53:25;;;;;;;6.07;3.58;;;;;;;10.92;91.69;102172.13;4989489;28;20030;-75
2022/09/20 01:56:22;;;;;;;7.60;4.15;;;;;;;10.89;92.00;102177.72;4991233;28;20038;-73
2022/09/20 01:59:07;;;;;;;5.75;3.30;;;;;;;10.87;91.45;102166.91;4990934;28;20516;-75
2022/09/20 02:02:03;;;;;;;8.65;4.05;;;;;;;10.89;91.85;102170.41;4990576;28;20062;-75
2022/09/20 02:04:40;;;;;;;10.25;3.63;;;;;;;10.90;91.78;102169.44;4989941;28;20446;-76
2022/09/20 02:07:19;;;;;;;10.45;3.72;;;;;;;10.90;91.49;102165.84;4990732;28;20050;-75
2022/09/20 02:10:20;;;;;;;8.15;3.70;;;;;;;10.88;91.42;102171.38;4990551;28;20173;-75
2022/09/20 02:12:53;;;;;;;11.80;5.07;;;;;;;10.88;92.27;102165.94;4968706;28;20039;-75
2022/09/20 02:15:41;;;;;;;6.20;3.13;;;;;;;10.87;91.61;102164.19;4983161;28;20050;-76
2022/09/20 02:18:26;;;;;;;7.88;3.47;;;;;;;10.86;91.64;102167.84;4990027;28;20038;-74
2022/09/20 02:21:14;;;;;;;9.38;3.90;;;;;;;10.89;92.06;102167.69;5003538;28;20042;-73
2022/09/20 02:24:02;;;;;;;8.82;3.05;;;;;;;10.88;91.35;102168.66;5005358;28;20100;-75
2022/09/20 02:26:39;;;;;;;8.55;3.50;;;;;;;10.87;91.58;102166.03;5007778;28;20122;-75
2022/09/20 02:29:28;;;;;;;10.25;4.32;;;;;;;10.86;91.40;102166.97;5023297;28;20034;-74
2022/09/20 02:32:22;;;;;;;8.55;3.47;;;;;;;10.84;91.12;102158.88;4990151;28;20517;-75
2022/09/20 02:35:13;;;;;;;9.88;3.30;;;;;;;10.84;91.43;102158.88;4990492;28;20046;-76
2022/09/20 02:37:57;;;;;;;7.60;3.30;;;;;;;10.84;91.35;102161.63;4990127;28;20045;-76
2022/09/20 02:41:00;;;;;;;6.30;3.20;;;;;;;10.84;91.14;102153.44;5005136;28;20171;-73
2022/09/20 02:43:26;;;;;;;;;;;;;;;10.89;90.32;102159.53;4990428;28;20049;-76
2022/09/20 02:46:15;;;;;;;7.07;3.65;;;;;;;10.81;91.37;102155.44;5004800;28;19909;-74
2022/09/20 02:48:57;;;;;;;7.40;3.15;;;;;;;10.85;91.11;102171.53;4989796;28;20510;-75
2022/09/20 02:51:46;;;;;;;10.30;2.92;;;;;;;10.87;91.52;102171.47;5004941;28;20344;-76
2022/09/20 02:54:49;;;;;;;8.48;3.67;;;;;;;10.86;91.14;102170.56;4988541;28;20358;-75
2022/09/20 02:57:24;;;;;;;8.40;3.08;;;;;;;10.86;90.99;102169.69;4996485;28;20593;-76
2022/09/20 02:59:57;;;;;;;14.50;3.20;;;;;;;10.85;91.22;102160.66;4990065;28;20358;-76
2022/09/20 03:02:42;;;;;;;7.03;3.10;;;;;;;10.86;90.99;102164.25;4996086;28;20050;-75
2022/09/20 03:05:26;;;;;;;5.95;3.10;;;;;;;10.86;91.56;102167.84;4988470;28;20058;-76
2022/09/20 03:08:55;;;;;;;8.00;3.30;;;;;;;10.87;91.18;102155.16;5004757;28;20034;-75
2022/09/20 03:11:34;;;;;;;10.15;3.13;;;;;;;10.86;91.91;102158.81;4968245;28;20418;-75
2022/09/20 03:14:23;;;;;;;5.60;3.28;;;;;;;10.86;91.83;102158.81;4967529;28;20053;-75
2022/09/20 03:17:03;;;;;;;7.53;3.35;;;;;;;10.87;92.04;102164.19;4989717;28;20108;-75
2022/09/20 03:19:47;;;;;;;7.60;2.83;;;;;;;10.87;92.82;102155.16;4989237;28;20077;-76
2022/09/20 03:22:34;;;;;;;10.60;3.28;;;;;;;10.87;91.93;102157.88;5004798;28;20049;-75
2022/09/20 03:25:29;;;;;;;10.13;3.50;;;;;;;10.89;91.97;102164.09;4989666;28;20620;-75
2022/09/20 03:28:34;;;;;;;8.35;3.63;;;;;;;10.89;91.87;102161.38;5004022;28;20040;-75
2022/09/20 03:31:06;;;;;;;12.65;3.85;;;;;;;10.86;91.71;102166.97;4990860;28;20061;-75
2022/09/20 03:33:57;;;;;;;14.77;3.63;;;;;;;10.88;91.88;102159.63;4995187;28;20030;-74
2022/09/20 03:36:34;;;;;;;15.43;5.38;;;;;;;10.87;91.96;102164.19;4988886;28;20042;-74
2022/09/20 03:39:39;;;;;;;8.05;3.53;;;;;;;10.86;92.37;102161.53;4988277;28;20046;-75
2022/09/20 03:42:29;;;;;;;10.32;3.60;;;;;;;10.88;92.18;102162.34;4988431;28;20216;-76
2022/09/20 03:45:19;;;;;;;9.60;3.63;;;;;;;10.88;92.62;102159.63;4994359;28;20035;-75
2022/09/20 03:48:01;;;;;;;11.30;4.25;;;;;;;10.86;92.99;102162.41;4989270;28;20775;-75
2022/09/20 03:50:36;;;;;;;8.50;3.97;;;;;;;10.87;93.13;102168.75;4989414;28;20460;-76
2022/09/20 03:53:20;;;;;;;6.45;3.58;;;;;;;10.87;92.96;102163.31;5004303;28;20347;-75
2022/09/20 03:56:03;;;;;;;10.45;4.70;;;;;;;10.87;93.42;102160.59;5004498;28;20453;-75
2022/09/20 03:58:28;;;;;;;9.57;4.13;;;;;;;10.86;93.13;102165.13;5003995;28;20038;-75
2022/09/20 04:01:06;;;;;;;7.97;4.18;;;;;;;10.88;93.71;102167.78;4989278;28;20536;-75
2022/09/20 04:03:41;;;;;;;7.38;3.80;;;;;;;10.88;93.22;102157.78;4987945;28;20109;-74
2022/09/20 04:06:15;;;;;;;11.43;4.45;;;;;;;10.86;93.77;102153.34;4989210;28;20184;-75
2022/09/20 04:08:59;;;;;;;8.27;4.00;;;;;;;10.86;93.59;102147.91;4991956;28;20042;-75
2022/09/20 04:11:47;;;;;;;10.38;3.85;;;;;;;10.83;93.45;102148.09;5010385;28;20045;-75
2022/09/20 04:14:37;;;;;;;8.95;3.38;;;;;;;10.86;92.96;102147.91;5001817;28;20367;-75
2022/09/20 04:17:37;;;;;;;20.70;5.30;;;;;;;10.88;92.80;102159.63;4992635;28;20100;-75
2022/09/20 04:20:20;;;;;;;6.93;3.30;;;;;;;10.88;93.21;102157.78;4992477;28;20034;-75
2022/09/20 04:22:50;;;;;;;;;;;;;;;10.94;91.90;102159.28;5007949;28;20077;-74
2022/09/20 04:25:22;;;;;;;5.80;3.00;;;;;;;10.88;92.16;102152.31;4997167;28;19920;-75
2022/09/20 04:27:53;;;;;;;6.55;2.85;;;;;;;10.90;92.23;102152.25;5007448;28;20045;-75
2022/09/20 04:30:25;;;;;;;8.35;3.22;;;;;;;10.91;92.52;102145.81;5005645;28;20049;-75
2022/09/20 04:33:12;;;;;;;8.20;3.55;;;;;;;10.92;92.59;102155.78;4992426;28;20382;-75
2022/09/20 04:38:51;;;;;;;6.97;3.33;;;;;;;10.89;92.58;102153.22;4991973;28;20046;-75
2022/09/20 04:41:56;;;;;;;7.63;2.97;;;;;;;10.88;92.25;102149.59;4992277;28;20041;-75
2022/09/20 04:45:11;;;;;;;12.23;3.33;;;;;;;10.88;92.17;102163.22;4991696;28;20045;-74
2022/09/20 04:47:59;;;;;;;10.88;3.92;;;;;;;10.85;92.56;102162.50;4986892;28;20367;-75
2022/09/20 04:51:01;;;;;;;11.77;3.25;;;;;;;10.85;92.70;102162.50;4991965;28;20042;-75
2022/09/20 04:53:49;;;;;;;7.65;3.65;;;;;;;10.83;92.21;102165.31;4991434;28;20041;-75
2022/09/20 04:56:38;;;;;;;11.10;3.40;;;;;;;10.84;92.96;102174.34;4992822;28;20177;-75
2022/09/20 04:59:09;;;;;;;9.52;3.53;;;;;;;10.82;92.67;102168.09;5013134;28;20038;-74
2022/09/20 05:01:54;;;;;;;9.00;4.72;;;;;;;10.81;92.80;102164.47;4990173;28;20045;-75
2022/09/20 05:04:56;;;;;;;8.80;3.40;;;;;;;10.81;92.77;102169.06;4991060;28;20049;-75
2022/09/20 05:07:55;;;;;;;7.17;3.70;;;;;;;10.80;93.42;102176.34;4991655;28;20057;-75
2022/09/20 05:10:46;;;;;;;6.75;4.10;;;;;;;10.76;93.11;102176.59;5006798;28;20310;-73
2022/09/20 05:13:38;;;;;;;6.40;3.53;;;;;;;10.76;93.19;102174.75;5006354;28;20095;-75
2022/09/20 05:16:11;;;;;;;6.40;3.63;;;;;;;10.71;92.82;102183.13;4991669;28;20050;-74
2022/09/20 05:18:49;;;;;;;6.13;3.33;;;;;;;10.67;92.27;102181.53;5005364;28;20104;-75
2022/09/20 05:21:34;;;;;;;6.20;3.72;;;;;;;10.63;92.89;102176.31;4991321;28;20141;-74
2022/09/20 05:24:46;;;;;;;7.75;4.30;;;;;;;10.60;92.72;102177.38;4991397;28;20481;-74
2022/09/20 05:27:37;;;;;;;7.60;4.28;;;;;;;10.55;93.24;102186.75;4979384;28;20513;-74
2022/09/20 05:30:43;;;;;;;8.27;3.92;;;;;;;10.52;92.61;102186.88;4990971;28;20041;-75
2022/09/20 05:33:13;;;;;;;5.70;3.80;;;;;;;10.46;93.39;102188.09;4990886;28;20117;-75
2022/09/20 05:35:57;;;;;;;9.52;3.92;;;;;;;10.44;93.13;102199.06;4989257;28;20093;-75
2022/09/20 05:38:49;;;;;;;9.63;4.10;;;;;;;10.48;93.40;102205.19;4991193;28;20045;-75
2022/09/20 05:41:32;;;;;;;12.82;4.30;;;;;;;10.50;93.75;102206.03;4990905;28;20057;-75
2022/09/20 05:44:20;;;;;;;4.75;3.40;;;;;;;10.56;93.65;102207.56;4990870;28;20065;-75
2022/09/20 05:47:19;;;;;;;5.47;3.75;;;;;;;10.59;93.47;102204.69;4990683;28;20042;-75
2022/09/20 05:50:15;;;;;;;7.85;4.70;;;;;;;10.64;93.90;102202.59;5008244;28;20354;-74
2022/09/20 05:52:58;;;;;;;8.68;4.55;;;;;;;10.67;94.34;102200.59;5007426;28;20069;-75
2022/09/20 05:55:41;;;;;;;10.85;4.63;;;;;;;10.73;94.33;102203.00;5023228;28;20038;-74
2022/09/20 05:58:30;;;;;;;11.68;4.68;;;;;;;10.80;94.48;102210.84;5005703;28;20176;-75
2022/09/20 06:01:06;;;;;;;8.23;4.38;;;;;;;10.82;94.38;102212.56;5007927;28;20036;-75
2022/09/20 06:03:54;;;;;;;8.88;4.20;;;;;;;10.85;94.44;102217.81;5005665;28;20070;-75
2022/09/20 06:06:45;;;;;;;7.78;4.30;;;;;;;10.90;93.60;102223.91;5022859;28;20049;-75
2022/09/20 06:09:29;;;;;;;10.50;4.68;;;;;;;10.94;93.59;102221.91;5007947;28;20046;-75
2022/09/20 06:12:15;;;;;;;13.68;5.00;;;;;;;10.94;93.67;102214.63;5002108;28;20049;-75
2022/09/20 06:15:00;;;;;;;8.20;4.55;;;;;;;10.99;93.57;102223.44;4989973;28;20049;-74
2022/09/20 06:17:36;;;;;;;6.25;3.80;;;;;;;11.02;93.21;102230.56;5004222;28;20053;-75
2022/09/20 06:20:09;;;;;;;8.20;4.20;;;;;;;11.04;93.52;102236.81;5005280;28;20030;-75
2022/09/20 06:22:42;;;;;;;7.63;3.95;;;;;;;11.06;93.61;102243.06;5005386;28;20394;-75
2022/09/20 06:25:07;;;;;;;6.50;3.85;;;;;;;11.09;93.24;102236.56;5007863;28;20061;-75
2022/09/20 06:27:38;;;;;;;8.93;4.35;;;;;;;11.12;93.60;102231.84;5010950;28;20030;-75
2022/09/20 06:30:11;;;;;;;11.10;4.15;;;;;;;11.15;93.44;102234.41;5004172;28;20074;-75
2022/09/20 06:32:55;;;;;;;16.70;4.82;;;;;;;11.20;93.78;102235.06;4989598;28;20069;-75
2022/09/20 06:35:22;;;;;;;10.27;4.43;;;;;;;11.26;93.56;102239.28;4990161;28;20528;-74
2022/09/20 06:43:35;;;;;;;7.22;4.47;;;;;;;11.39;93.12;102236.81;5009234;28;20038;-75
2022/09/20 06:46:01;;;;;;;9.77;5.03;;;;;;;11.43;92.42;102236.56;4990200;28;20061;-74
2022/09/20 06:48:28;;;;;;;8.50;5.20;;;;;;;11.46;92.96;102244.53;5005940;28;20470;-75
2022/09/20 06:50:54;;;;;;;11.50;5.10;;;;;;;11.53;92.80;102241.50;4997132;28;20486;-75
2022/09/20 06:53:29;;;;;;;12.57;4.40;;;;;;;11.56;92.31;102239.47;4990157;28;20037;-75
2022/09/20 06:55:56;;;;;;;9.10;4.18;;;;;;;11.57;92.02;102235.81;4989837;28;20038;-75
2022/09/20 06:58:21;;;;;;;5.85;3.75;;;;;;;11.60;91.85;102241.06;5008249;28;20489;-73
2022/09/20 07:00:47;;;;;;;8.65;3.88;;;;;;;11.68;92.18;102240.66;5007286;28;20021;-75
2022/09/20 07:03:12;;;;;;;8.77;4.50;;;;;;;11.77;92.14;102240.16;5006669;28;20030;-75
2022/09/20 07:05:38;;;;;;;7.78;4.53;;;;;;;11.89;92.42;102247.72;4999145;28;20050;-75
2022/09/20 07:08:03;;;;;;;10.32;4.38;;;;;;;11.99;92.10;102245.34;4989676;28;20042;-75
2022/09/20 07:10:29;;;;;;;6.50;4.47;;;;;;;12.06;91.16;102244.03;4989627;28;20049;-74
2022/09/20 07:12:59;;;;;;;8.07;4.00;;;;;;;12.14;91.49;102241.75;5007396;28;20033;-75
2022/09/20 07:15:29;;;;;;;7.75;4.15;;;;;;;12.19;90.49;102244.22;4994189;28;20029;-75
2022/09/20 07:17:55;;;;;;;6.82;3.55;;;;;;;12.24;91.05;102244.84;4993382;28;20035;-75
2022/09/20 07:20:20;;;;;;;8.50;3.95;;;;;;;12.29;89.93;102236.38;4991997;28;20045;-75
2022/09/20 07:22:46;;;;;;;10.20;3.65;;;;;;;12.37;90.49;102239.56;4989634;28;20026;-75
2022/09/20 07:25:12;;;;;;;6.50;3.42;;;;;;;12.47;90.11;102243.50;4989315;28;20046;-75
2022/09/20 07:27:38;;;;;;;9.18;4.20;;;;;;;12.52;89.43;102238.66;5002658;28;20049;-75
2022/09/20 07:30:05;;;;;;;8.57;4.20;;;;;;;12.55;89.69;102243.06;5002702;28;20441;-75
2022/09/20 07:32:30;;;;;;;6.85;3.88;;;;;;;12.58;89.64;102240.16;4995769;28;20034;-75
2022/09/20 07:34:56;;;;;;;6.00;3.10;;;;;;;12.63;89.60;102238.03;4989357;28;20093;-75
2022/09/20 07:37:21;;;;;;;5.30;2.85;;;;;;;12.76;89.41;102241.78;4988653;28;20038;-75
2022/09/20 07:39:46;;;;;;;8.57;2.95;;;;;;;12.82;88.29;102249.59;5004783;28;20031;-75
2022/09/20 07:42:13;;;;;;;8.85;3.30;;;;;;;12.90;88.53;102249.16;4990091;28;20026;-75
2022/09/20 07:44:41;;;;;;;10.48;3.13;;;;;;;12.96;88.49;102255.16;4992871;28;20137;-75
2022/09/20 07:47:09;;;;;;;4.10;2.92;;;;;;;13.06;86.78;102255.50;4993076;28;20038;-75
2022/09/20 07:49:35;;;;;;;4.90;3.22;;;;;;;13.08;86.92;102259.00;4992684;28;20034;-75
2022/09/20 07:52:01;;;;;;;5.57;2.90;;;;;;;13.12;86.74;102268.78;4991878;28;20397;-75
2022/09/20 07:54:27;;;;;;;7.90;4.00;;;;;;;13.15;86.99;102265.84;5007760;28;20089;-75
2022/09/20 07:56:52;;;;;;;8.13;3.58;;;;;;;13.18;87.26;102268.38;4993561;28;20462;-74
2022/09/20 07:59:18;;;;;;;8.88;3.03;;;;;;;13.14;86.20;102269.53;5008061;28;20101;-75
2022/09/20 08:01:43;;;;;;;9.85;3.70;;;;;;;13.10;85.31;102270.69;4992678;28;20034;-75
2022/09/20 08:04:09;;;;;;;5.65;2.85;;;;;;;13.07;86.51;102272.75;4996408;28;20117;-75
2022/09/20 08:06:40;;;;;;;9.60;2.88;;;;;;;13.09;86.06;102282.59;5007477;28;20057;-75
2022/09/20 08:09:06;;;;;;;7.45;3.05;;;;;;;13.14;85.88;102272.28;4992677;28;20575;-75
2022/09/20 08:11:32;;;;;;;12.75;2.97;;;;;;;13.18;86.16;102267.50;4992661;28;20042;-75
2022/09/20 08:13:58;;;;;;;7.10;2.42;;;;;;;13.21;87.21;102276.41;5007637;28;20038;-75
2022/09/20 08:16:26;;;;;;;8.30;3.38;;;;;;;13.15;85.22;102271.31;5006200;28;20050;-73
2022/09/20 08:18:57;;;;;;;5.40;2.90;;;;;;;13.18;84.78;102276.59;4999486;28;20026;-73
2022/09/20 08:21:30;;;;;;;6.95;2.70;;;;;;;13.28;85.57;102271.47;4992498;28;20058;-75
2022/09/20 08:23:55;;;;;;;4.82;2.42;;;;;;;13.36;85.03;102277.34;5000430;28;20041;-75
2022/09/20 08:26:23;;;;;;;6.80;2.90;;;;;;;13.39;84.82;102276.31;5012791;28;20067;-76
2022/09/20 08:28:54;;;;;;;7.88;2.58;;;;;;;13.36;83.30;102276.47;5012352;28;20041;-75
2022/09/20 08:31:22;;;;;;;4.50;2.00;;;;;;;13.34;83.33;102278.44;4993397;28;20495;-74
2022/09/20 08:33:49;;;;;;;8.38;2.65;;;;;;;13.30;82.32;102274.13;4992507;28;20050;-75
2022/09/20 08:36:21;;;;;;;6.22;2.47;;;;;;;13.26;80.86;102285.25;5006167;28;20481;-75
2022/09/20 08:38:47;;;;;;;4.28;2.05;;;;;;;13.24;82.79;102281.75;4992695;28;20509;-75
2022/09/20 08:41:20;;;;;;;5.25;2.13;;;;;;;13.22;81.12;102270.00;4992101;28;20026;-75
2022/09/20 08:43:54;;;;;;;5.13;1.88;;;;;;;13.24;82.32;102284.47;4992067;28;20049;-75
2022/09/20 08:46:27;;;;;;;6.40;1.90;;;;;;;13.30;82.67;102291.41;4991262;28;20145;-75
2022/09/20 08:48:53;;;;;;;6.38;1.90;;;;;;;13.30;81.47;102291.41;4991585;28;20038;-74
2022/09/20 08:51:20;;;;;;;6.28;1.33;;;;;;;13.33;80.09;102296.66;4991155;28;20053;-74
2022/09/20 08:53:49;;;;;;;8.23;1.35;;;;;;;13.37;80.00;102303.72;4991791;28;20121;-74
2022/09/20 08:56:15;;;;;;;7.30;1.65;;;;;;;13.41;79.92;102302.56;4976517;28;20033;-75
2022/09/20 08:58:41;;;;;;;5.68;1.40;;;;;;;13.42;78.74;102304.31;5002692;28;20523;-74
2022/09/20 09:01:09;;;;;;;4.20;1.17;;;;;;;13.43;80.17;102295.16;4991653;28;20034;-73
2022/09/20 09:03:35;;;;;;;9.52;1.58;;;;;;;13.47;81.02;102293.09;5000648;28;20038;-73
2022/09/20 09:06:01;;;;;;;5.50;1.15;;;;;;;13.54;77.74;102297.22;5006599;28;20108;-74
2022/09/20 09:08:32;;;;;;;2.55;1.13;;;;;;;13.65;75.35;102304.75;4991773;28;20555;-74
2022/09/20 09:11:12;;;;;;;5.47;1.10;;;;;;;13.84;76.46;102304.47;4993330;28;20030;-75
2022/09/20 09:13:52;;;;;;;9.65;1.33;;;;;;;14.06;75.38;102290.31;5010879;28;20107;-74
2022/09/20 09:16:20;;;;;;;5.57;1.20;;;;;;;14.40;77.44;102287.16;4993425;28;20505;-75
2022/09/20 09:18:48;;;;;;;2.65;0.93;;;;;;;14.75;76.89;102294.94;4991367;28;20040;-75
2022/09/20 09:21:26;;;;;;;4.07;0.90;;;;;;;14.94;75.25;102295.47;5006367;28;20137;-75
2022/09/20 09:24:00;;;;;;;3.08;0.88;;;;;;;15.14;75.35;102291.34;5006595;28;20038;-72
2022/09/20 09:26:26;;;;;;;5.43;1.15;;;;;;;15.34;70.18;102298.22;4993918;28;20484;-74
2022/09/20 09:29:08;;;;;;;4.95;0.95;;;;;;;15.39;70.59;102287.81;5001203;28;20045;-73
2022/09/20 09:31:35;;;;;;;3.22;1.15;;;;;;;15.42;67.51;102292.19;5005894;28;20038;-74
2022/09/20 09:34:00;;;;;;;4.82;1.10;;;;;;;15.54;69.80;102291.34;4991062;28;20041;-74
2022/09/20 09:36:26;;;;;;;5.90;1.00;;;;;;;15.65;67.01;102299.72;4991162;28;20406;-75
2022/09/20 09:39:15;;;;;;;7.25;1.10;;;;;;;15.66;68.04;102297.84;4990827;28;20388;-73
2022/09/20 09:41:42;;;;;;;10.20;1.38;;;;;;;15.64;66.67;102292.47;4991204;28;20437;-73
2022/09/20 09:44:34;;;;;;;6.40;1.10;;;;;;;15.65;70.73;102296.97;5005813;28;20038;-74
2022/09/20 09:47:00;;;;;;;7.15;1.40;;;;;;;15.56;64.85;102301.19;4990817;28;20113;-75
2022/09/20 09:49:29;;;;;;;3.30;0.93;;;;;;;15.41;65.46;102295.91;5005659;28;20042;-74
2022/09/20 09:52:13;;;;;;;5.72;1.13;;;;;;;15.17;64.18;102314.94;4991361;28;20367;-74
2022/09/20 09:54:52;;;;;;;5.13;1.67;;;;;;;14.93;67.44;102307.41;4990963;28;20398;-74
2022/09/20 09:58:02;;;;;;;10.25;1.17;;;;;;;14.83;70.89;102317.25;5001905;28;20465;-74
2022/09/20 10:00:30;;;;;;;3.70;0.90;;;;;;;14.77;72.11;102312.16;4988876;28;20046;-74
2022/09/20 10:03:17;;;;;;;8.20;1.48;;;;;;;14.67;70.64;102308.25;4989729;28;20030;-73
2022/09/20 10:06:05;;;;;;;3.92;0.70;;;;;;;14.65;71.38;102312.97;4989839;28;20111;-74
2022/09/20 10:09:20;;;;;;;6.78;0.90;;;;;;;14.65;71.06;102310.25;4989204;28;20034;-74
2022/09/20 10:12:03;;;;;;;2.85;0.90;;;;;;;14.60;73.21;102309.66;4981911;28;20060;-74
2022/09/20 10:15:15;;;;;;;6.28;1.08;;;;;;;14.57;73.01;102310.72;4990200;28;20393;-73
2022/09/20 10:17:54;;;;;;;7.72;1.35;;;;;;;14.62;72.10;102308.56;4968660;28;20035;-74
2022/09/20 10:20:51;;;;;;;5.53;1.00;;;;;;;14.68;73.27;102313.63;4969419;28;20058;-73
2022/09/20 10:23:36;;;;;;;5.47;1.00;;;;;;;14.80;74.23;102306.47;4988722;28;20037;-74
2022/09/20 10:26:09;;;;;;;3.80;1.23;;;;;;;14.92;73.39;102310.22;5023996;28;20033;-73
2022/09/20 10:28:47;;;;;;;2.80;1.05;;;;;;;14.94;71.49;102311.03;4990039;28;20048;-73
2022/09/20 10:31:24;;;;;;;3.97;0.98;;;;;;;15.00;73.24;102306.00;4990034;28;20122;-73
2022/09/20 10:34:14;;;;;;;4.20;1.02;;;;;;;15.00;70.83;102299.63;4996985;28;20088;-74
2022/09/20 10:36:59;;;;;;;4.93;0.98;;;;;;;15.07;69.65;102308.34;4990086;28;20042;-74
2022/09/20 10:39:35;;;;;;;7.82;1.10;;;;;;;15.04;68.17;102301.19;4989255;28;20046;-74
2022/09/20 10:45:18;;;;;;;6.85;1.08;;;;;;;15.11;68.98;102308.03;4989927;28;20109;-74
2022/09/20 10:48:07;;;;;;;3.88;0.80;;;;;;;15.26;68.86;102303.34;4989677;28;20045;-73
2022/09/20 10:50:44;;;;;;;6.95;0.88;;;;;;;15.40;64.34;102307.88;4989009;28;20504;-73
2022/09/20 10:53:27;;;;;;;4.03;1.27;;;;;;;15.55;65.79;102310.41;4989894;28;20042;-74
2022/09/20 10:56:19;;;;;;;7.90;1.17;;;;;;;15.75;69.13;102302.69;5003966;28;20513;-73
2022/09/20 10:59:15;;;;;;;5.22;1.00;;;;;;;15.84;67.49;102306.63;4989877;28;20049;-73
2022/09/20 11:01:43;;;;;;;5.85;1.10;;;;;;;15.99;66.00;102306.44;4990057;28;20061;-74
2022/09/20 11:04:36;;;;;;;3.17;0.90;;;;;;;15.89;66.03;102312.66;4989556;28;20100;-75
2022/09/20 11:07:10;;;;;;;3.95;1.15;;;;;;;16.10;65.93;102311.16;5004700;28;20038;-74
2022/09/20 11:09:59;;;;;;;5.95;1.08;;;;;;;16.53;64.46;102311.59;4988453;28;20481;-74
2022/09/20 11:12:33;;;;;;;9.10;0.95;;;;;;;17.19;64.90;102309.41;4997997;28;20038;-74
2022/09/20 11:15:11;;;;;;;3.60;0.85;;;;;;;17.68;65.09;102312.97;4994320;28;20121;-73
2022/09/20 11:17:44;;;;;;;3.10;0.88;;;;;;;17.66;57.43;102324.06;4990681;28;20050;-75
2022/09/20 11:20:25;;;;;;;8.43;1.38;;;;;;;17.31;60.29;102333.22;4996983;28;20374;-74
2022/09/20 11:23:19;;;;;;;4.82;1.10;;;;;;;16.67;59.76;102327.06;5013507;28;20704;-75
2022/09/20 11:25:53;;;;;;;6.72;1.13;;;;;;;16.25;61.55;102325.63;5012885;28;20045;-74
2022/09/20 11:28:25;;;;;;;4.45;0.90;;;;;;;16.20;63.14;102325.06;5012692;28;20038;-74
2022/09/20 11:31:03;;;;;;;5.32;1.40;;;;;;;16.09;62.10;102323.13;5000311;28;20342;-74
2022/09/20 11:33:35;;;;;;;2.35;0.80;;;;;;;15.91;61.53;102325.31;4992908;28;20165;-74
2022/09/20 11:36:07;;;;;;;7.70;1.35;;;;;;;15.96;62.55;102334.09;5000598;28;20061;-74
2022/09/20 11:38:46;;;;;;;3.22;1.10;;;;;;;15.98;63.81;102332.09;4993577;28;20043;-74
2022/09/20 11:41:14;;;;;;;4.57;1.95;;;;;;;15.93;62.72;102331.56;4993419;28;20030;-74
2022/09/20 11:43:44;;;;;;;6.78;1.35;;;;;;;16.19;66.98;102329.69;4996260;28;20429;-74
2022/09/20 11:46:22;;;;;;;4.00;1.33;;;;;;;16.31;65.45;102333.41;4997367;28;20038;-74
2022/09/20 11:48:58;;;;;;;5.28;0.88;;;;;;;16.31;64.32;102337.03;4993418;28;20497;-74
2022/09/20 11:51:53;;;;;;;2.95;0.85;;;;;;;16.28;64.80;102339.13;4993033;28;20481;-74
2022/09/20 11:54:36;;;;;;;1.83;0.90;;;;;;;15.99;63.06;102338.47;4993212;28;20038;-73
2022/09/20 11:57:02;;;;;;;5.15;1.40;;;;;;;15.73;63.55;102349.44;4995019;28;20500;-74
2022/09/20 11:59:36;;;;;;;5.47;1.40;;;;;;;15.58;64.33;102336.78;4991153;28;20129;-74
2022/09/20 12:02:10;;;;;;;6.00;2.40;;;;;;;15.45;63.30;102334.00;5007833;28;20042;-74
2022/09/20 12:04:36;;;;;;;5.38;1.38;;;;;;;15.37;63.77;102335.50;4992248;28;20046;-74
2022/09/20 12:07:06;;;;;;;5.00;1.10;;;;;;;15.19;64.21;102341.25;4992843;28;20042;-74
2022/09/20 12:09:39;;;;;;;3.80;1.33;;;;;;;15.14;64.79;102345.31;5007681;28;20065;-75
2022/09/20 12:12:29;;;;;;;4.45;1.33;;;;;;;15.10;66.74;102349.22;5007562;28;20038;-74
2022/09/20 12:14:57;;;;;;;4.72;1.40;;;;;;;14.93;65.54;102343.03;4991128;28;20398;-74
2022/09/20 12:17:44;;;;;;;4.40;1.40;;;;;;;15.08;68.80;102343.00;4991426;28;20034;-73
2022/09/20 12:20:31;;;;;;;4.18;1.40;;;;;;;15.20;66.15;102348.53;4992466;28;20077;-74
2022/09/20 12:23:34;;;;;;;7.00;2.03;;;;;;;15.29;68.28;102347.00;5007648;28;20494;-74
2022/09/20 12:26:01;;;;;;;;;;;;;;;15.57;68.48;102344.13;5012532;28;20065;-74